<?xml version="1.0" encoding="UTF-8" standalone="no" ?>
<gpx xmlns="http://www.topografix.com/GPX/1/1" xmlns:xsi="http://www.w3.org/2001/XMLSchema-instance" xsi:schemaLocation="http://www.topografix.com/GPX/1/1 http://www.topografix.com/GPX/1/1/gpx.xsd" version="1.1" creator="VisuGPX - https://www.visugpx.com">
  <metadata>
    <name>Davrinche20104</name>
    <desc><![CDATA[la partie 4 des itinéraires de repérage]]></desc>
  </metadata>
  <trk>
    <name><![CDATA[--Charbonnières-les-Vieilles-- OR-5377407:ser-jb06-b]]></name>
    <trkseg>
      <trkpt lat="45.99634" lon="2.99659">
        <ele>617</ele>
        <time>2015-10-18T19:26:12Z</time>
      </trkpt>
      <trkpt lat="45.99646" lon="2.9967">
        <ele>617</ele>
        <time>2015-10-18T19:28:12Z</time>
      </trkpt>
      <trkpt lat="45.99658" lon="2.99649">
        <ele>618</ele>
        <time>2015-10-18T19:30:12Z</time>
      </trkpt>
      <trkpt lat="45.99664" lon="2.99631">
        <ele>618</ele>
        <time>2015-10-18T19:32:12Z</time>
      </trkpt>
      <trkpt lat="45.99669" lon="2.99597">
        <ele>619</ele>
        <time>2015-10-18T19:34:12Z</time>
      </trkpt>
      <trkpt lat="45.99671" lon="2.99568">
        <ele>620</ele>
        <time>2015-10-18T19:36:12Z</time>
      </trkpt>
      <trkpt lat="45.99674" lon="2.99533">
        <ele>619</ele>
        <time>2015-10-18T19:38:12Z</time>
      </trkpt>
      <trkpt lat="45.99675" lon="2.99508">
        <ele>618</ele>
        <time>2015-10-18T19:40:12Z</time>
      </trkpt>
      <trkpt lat="45.99689" lon="2.99445">
        <ele>618</ele>
        <time>2015-10-18T19:42:12Z</time>
      </trkpt>
      <trkpt lat="45.997" lon="2.99407">
        <ele>618</ele>
        <time>2015-10-18T19:44:12Z</time>
      </trkpt>
      <trkpt lat="45.99721" lon="2.99309">
        <ele>618</ele>
        <time>2015-10-18T19:46:12Z</time>
      </trkpt>
      <trkpt lat="45.99762" lon="2.9917">
        <ele>618</ele>
        <time>2015-10-18T19:48:12Z</time>
      </trkpt>
      <trkpt lat="45.99776" lon="2.99103">
        <ele>618</ele>
        <time>2015-10-18T19:50:12Z</time>
      </trkpt>
      <trkpt lat="45.99767" lon="2.99052">
        <ele>615</ele>
        <time>2015-10-18T19:52:12Z</time>
      </trkpt>
      <trkpt lat="45.99758" lon="2.99016">
        <ele>611</ele>
        <time>2015-10-18T19:54:12Z</time>
      </trkpt>
      <trkpt lat="45.99753" lon="2.98993">
        <ele>610</ele>
        <time>2015-10-18T19:56:12Z</time>
      </trkpt>
      <trkpt lat="45.99752" lon="2.98951">
        <ele>607</ele>
        <time>2015-10-18T19:58:12Z</time>
      </trkpt>
      <trkpt lat="45.99757" lon="2.98937">
        <ele>606</ele>
        <time>2015-10-18T20:00:12Z</time>
      </trkpt>
      <trkpt lat="45.99772" lon="2.98903">
        <ele>602</ele>
        <time>2015-10-18T20:02:12Z</time>
      </trkpt>
      <trkpt lat="45.99785" lon="2.98879">
        <ele>599</ele>
        <time>2015-10-18T20:04:12Z</time>
      </trkpt>
      <trkpt lat="45.99799" lon="2.98857">
        <ele>597</ele>
        <time>2015-10-18T20:06:12Z</time>
      </trkpt>
      <trkpt lat="45.99808" lon="2.98844">
        <ele>595</ele>
        <time>2015-10-18T20:08:12Z</time>
      </trkpt>
      <trkpt lat="45.99807" lon="2.98805">
        <ele>590</ele>
        <time>2015-10-18T20:10:12Z</time>
      </trkpt>
      <trkpt lat="45.99811" lon="2.9879">
        <ele>589</ele>
        <time>2015-10-18T20:12:12Z</time>
      </trkpt>
      <trkpt lat="45.99847" lon="2.98767">
        <ele>586</ele>
        <time>2015-10-18T20:14:12Z</time>
      </trkpt>
      <trkpt lat="45.99888" lon="2.98728">
        <ele>578</ele>
        <time>2015-10-18T20:16:12Z</time>
      </trkpt>
      <trkpt lat="45.99904" lon="2.98697">
        <ele>572</ele>
        <time>2015-10-18T20:18:12Z</time>
      </trkpt>
      <trkpt lat="45.99952" lon="2.98666">
        <ele>565</ele>
        <time>2015-10-18T20:20:12Z</time>
      </trkpt>
      <trkpt lat="45.99987" lon="2.98633">
        <ele>560</ele>
        <time>2015-10-18T20:22:12Z</time>
      </trkpt>
      <trkpt lat="46.00013" lon="2.98609">
        <ele>554</ele>
        <time>2015-10-18T20:24:12Z</time>
      </trkpt>
      <trkpt lat="46.00054" lon="2.98561">
        <ele>540</ele>
        <time>2015-10-18T20:26:12Z</time>
      </trkpt>
      <trkpt lat="46.00009" lon="2.98461">
        <ele>531</ele>
        <time>2015-10-18T20:28:12Z</time>
      </trkpt>
      <trkpt lat="45.99969" lon="2.98402">
        <ele>524</ele>
        <time>2015-10-18T20:30:12Z</time>
      </trkpt>
      <trkpt lat="45.9998" lon="2.98394">
        <ele>522</ele>
        <time>2015-10-18T20:32:12Z</time>
      </trkpt>
      <trkpt lat="46.00013" lon="2.98397">
        <ele>520</ele>
        <time>2015-10-18T20:34:12Z</time>
      </trkpt>
      <trkpt lat="46.00048" lon="2.98399">
        <ele>517</ele>
        <time>2015-10-18T20:36:12Z</time>
      </trkpt>
      <trkpt lat="46.00076" lon="2.98397">
        <ele>514</ele>
        <time>2015-10-18T20:38:12Z</time>
      </trkpt>
      <trkpt lat="46.00098" lon="2.98397">
        <ele>512</ele>
        <time>2015-10-18T20:40:12Z</time>
      </trkpt>
      <trkpt lat="46.00168" lon="2.98379">
        <ele>506</ele>
        <time>2015-10-18T20:42:12Z</time>
      </trkpt>
      <trkpt lat="46.00192" lon="2.98382">
        <ele>509</ele>
        <time>2015-10-18T20:44:12Z</time>
      </trkpt>
      <trkpt lat="46.00202" lon="2.98385">
        <ele>510</ele>
        <time>2015-10-18T20:46:12Z</time>
      </trkpt>
      <trkpt lat="46.00221" lon="2.98369">
        <ele>514</ele>
        <time>2015-10-18T20:48:12Z</time>
      </trkpt>
      <trkpt lat="46.00236" lon="2.98384">
        <ele>513</ele>
        <time>2015-10-18T20:50:12Z</time>
      </trkpt>
      <trkpt lat="46.00247" lon="2.98401">
        <ele>512</ele>
        <time>2015-10-18T20:52:12Z</time>
      </trkpt>
      <trkpt lat="46.00256" lon="2.98428">
        <ele>510</ele>
        <time>2015-10-18T20:54:12Z</time>
      </trkpt>
      <trkpt lat="46.00267" lon="2.98444">
        <ele>511</ele>
        <time>2015-10-18T20:56:12Z</time>
      </trkpt>
      <trkpt lat="46.00335" lon="2.98494">
        <ele>512</ele>
        <time>2015-10-18T20:58:12Z</time>
      </trkpt>
      <trkpt lat="46.00364" lon="2.985">
        <ele>517</ele>
        <time>2015-10-18T21:00:12Z</time>
      </trkpt>
      <trkpt lat="46.00386" lon="2.98529">
        <ele>517</ele>
        <time>2015-10-18T21:02:12Z</time>
      </trkpt>
      <trkpt lat="46.00397" lon="2.98537">
        <ele>518</ele>
        <time>2015-10-18T21:04:12Z</time>
      </trkpt>
      <trkpt lat="46.004" lon="2.98565">
        <ele>514</ele>
        <time>2015-10-18T21:06:12Z</time>
      </trkpt>
      <trkpt lat="46.00431" lon="2.98597">
        <ele>514</ele>
        <time>2015-10-18T21:08:12Z</time>
      </trkpt>
      <trkpt lat="46.00456" lon="2.98619">
        <ele>514</ele>
        <time>2015-10-18T21:10:12Z</time>
      </trkpt>
      <trkpt lat="46.00472" lon="2.98632">
        <ele>514</ele>
        <time>2015-10-18T21:12:12Z</time>
      </trkpt>
      <trkpt lat="46.00505" lon="2.98652">
        <ele>512</ele>
        <time>2015-10-18T21:14:12Z</time>
      </trkpt>
      <trkpt lat="46.00516" lon="2.98651">
        <ele>513</ele>
        <time>2015-10-18T21:16:12Z</time>
      </trkpt>
      <trkpt lat="46.00526" lon="2.98647">
        <ele>515</ele>
        <time>2015-10-18T21:18:12Z</time>
      </trkpt>
      <trkpt lat="46.00535" lon="2.98647">
        <ele>516</ele>
        <time>2015-10-18T21:20:12Z</time>
      </trkpt>
      <trkpt lat="46.00548" lon="2.98655">
        <ele>515</ele>
        <time>2015-10-18T21:22:12Z</time>
      </trkpt>
      <trkpt lat="46.00564" lon="2.98659">
        <ele>516</ele>
        <time>2015-10-18T21:24:12Z</time>
      </trkpt>
      <trkpt lat="46.00576" lon="2.98664">
        <ele>517</ele>
        <time>2015-10-18T21:26:12Z</time>
      </trkpt>
      <trkpt lat="46.006" lon="2.98689">
        <ele>518</ele>
        <time>2015-10-18T21:28:12Z</time>
      </trkpt>
      <trkpt lat="46.0063" lon="2.98726">
        <ele>518</ele>
        <time>2015-10-18T21:30:12Z</time>
      </trkpt>
      <trkpt lat="46.00642" lon="2.98741">
        <ele>516</ele>
        <time>2015-10-18T21:32:12Z</time>
      </trkpt>
      <trkpt lat="46.0066" lon="2.98774">
        <ele>517</ele>
        <time>2015-10-18T21:34:12Z</time>
      </trkpt>
      <trkpt lat="46.0068" lon="2.9881">
        <ele>517</ele>
        <time>2015-10-18T21:36:12Z</time>
      </trkpt>
      <trkpt lat="46.00701" lon="2.9882">
        <ele>515</ele>
        <time>2015-10-18T21:38:12Z</time>
      </trkpt>
      <trkpt lat="46.00717" lon="2.98829">
        <ele>513</ele>
        <time>2015-10-18T21:40:12Z</time>
      </trkpt>
      <trkpt lat="46.00751" lon="2.98821">
        <ele>512</ele>
        <time>2015-10-18T21:42:12Z</time>
      </trkpt>
      <trkpt lat="46.00766" lon="2.9883">
        <ele>510</ele>
        <time>2015-10-18T21:44:12Z</time>
      </trkpt>
      <trkpt lat="46.00783" lon="2.98839">
        <ele>510</ele>
        <time>2015-10-18T21:46:12Z</time>
      </trkpt>
      <trkpt lat="46.00804" lon="2.98832">
        <ele>509</ele>
        <time>2015-10-18T21:48:12Z</time>
      </trkpt>
      <trkpt lat="46.00818" lon="2.98826">
        <ele>510</ele>
        <time>2015-10-18T21:50:12Z</time>
      </trkpt>
      <trkpt lat="46.00838" lon="2.98815">
        <ele>513</ele>
        <time>2015-10-18T21:52:12Z</time>
      </trkpt>
      <trkpt lat="46.0085" lon="2.98803">
        <ele>516</ele>
        <time>2015-10-18T21:54:12Z</time>
      </trkpt>
      <trkpt lat="46.0087" lon="2.98787">
        <ele>521</ele>
        <time>2015-10-18T21:56:12Z</time>
      </trkpt>
      <trkpt lat="46.00886" lon="2.98783">
        <ele>522</ele>
        <time>2015-10-18T21:58:12Z</time>
      </trkpt>
      <trkpt lat="46.0094" lon="2.988">
        <ele>521</ele>
        <time>2015-10-18T22:00:12Z</time>
      </trkpt>
      <trkpt lat="46.00961" lon="2.98808">
        <ele>521</ele>
        <time>2015-10-18T22:02:12Z</time>
      </trkpt>
      <trkpt lat="46.00991" lon="2.98833">
        <ele>517</ele>
        <time>2015-10-18T22:04:12Z</time>
      </trkpt>
      <trkpt lat="46.01022" lon="2.98857">
        <ele>517</ele>
        <time>2015-10-18T22:06:12Z</time>
      </trkpt>
      <trkpt lat="46.01043" lon="2.98864">
        <ele>518</ele>
        <time>2015-10-18T22:08:12Z</time>
      </trkpt>
      <trkpt lat="46.01068" lon="2.98864">
        <ele>519</ele>
        <time>2015-10-18T22:10:12Z</time>
      </trkpt>
      <trkpt lat="46.01087" lon="2.98869">
        <ele>520</ele>
        <time>2015-10-18T22:12:12Z</time>
      </trkpt>
      <trkpt lat="46.01128" lon="2.98898">
        <ele>525</ele>
        <time>2015-10-18T22:14:12Z</time>
      </trkpt>
      <trkpt lat="46.01152" lon="2.98915">
        <ele>528</ele>
        <time>2015-10-18T22:16:12Z</time>
      </trkpt>
      <trkpt lat="46.01174" lon="2.98935">
        <ele>528</ele>
        <time>2015-10-18T22:18:12Z</time>
      </trkpt>
      <trkpt lat="46.01186" lon="2.98964">
        <ele>525</ele>
        <time>2015-10-18T22:20:12Z</time>
      </trkpt>
      <trkpt lat="46.01203" lon="2.99032">
        <ele>519</ele>
        <time>2015-10-18T22:22:12Z</time>
      </trkpt>
      <trkpt lat="46.0122" lon="2.99049">
        <ele>522</ele>
        <time>2015-10-18T22:24:12Z</time>
      </trkpt>
      <trkpt lat="46.01215" lon="2.99067">
        <ele>520</ele>
        <time>2015-10-18T22:26:12Z</time>
      </trkpt>
      <trkpt lat="46.0119" lon="2.99093">
        <ele>512</ele>
        <time>2015-10-18T22:28:12Z</time>
      </trkpt>
      <trkpt lat="46.01179" lon="2.99121">
        <ele>509</ele>
        <time>2015-10-18T22:30:12Z</time>
      </trkpt>
      <trkpt lat="46.01183" lon="2.99154">
        <ele>510</ele>
        <time>2015-10-18T22:32:12Z</time>
      </trkpt>
      <trkpt lat="46.01186" lon="2.9917">
        <ele>510</ele>
        <time>2015-10-18T22:34:12Z</time>
      </trkpt>
      <trkpt lat="46.01193" lon="2.99199">
        <ele>509</ele>
        <time>2015-10-18T22:36:12Z</time>
      </trkpt>
      <trkpt lat="46.01211" lon="2.99236">
        <ele>509</ele>
        <time>2015-10-18T22:38:12Z</time>
      </trkpt>
      <trkpt lat="46.0123" lon="2.99276">
        <ele>509</ele>
        <time>2015-10-18T22:40:12Z</time>
      </trkpt>
      <trkpt lat="46.01267" lon="2.99346">
        <ele>508</ele>
        <time>2015-10-18T22:42:12Z</time>
      </trkpt>
      <trkpt lat="46.01267" lon="2.99405">
        <ele>506</ele>
        <time>2015-10-18T22:44:12Z</time>
      </trkpt>
      <trkpt lat="46.01259" lon="2.99457">
        <ele>502</ele>
        <time>2015-10-18T22:46:12Z</time>
      </trkpt>
      <trkpt lat="46.01251" lon="2.99482">
        <ele>499</ele>
        <time>2015-10-18T22:48:12Z</time>
      </trkpt>
      <trkpt lat="46.01274" lon="2.99535">
        <ele>505</ele>
        <time>2015-10-18T22:50:12Z</time>
      </trkpt>
      <trkpt lat="46.01289" lon="2.99597">
        <ele>504</ele>
        <time>2015-10-18T22:52:12Z</time>
      </trkpt>
      <trkpt lat="46.01297" lon="2.99643">
        <ele>500</ele>
        <time>2015-10-18T22:54:12Z</time>
      </trkpt>
      <trkpt lat="46.01317" lon="2.99685">
        <ele>498</ele>
        <time>2015-10-18T22:56:12Z</time>
      </trkpt>
      <trkpt lat="46.01341" lon="2.99732">
        <ele>496</ele>
        <time>2015-10-18T22:58:12Z</time>
      </trkpt>
      <trkpt lat="46.01329" lon="2.99769">
        <ele>490</ele>
        <time>2015-10-18T23:00:12Z</time>
      </trkpt>
      <trkpt lat="46.01321" lon="2.99804">
        <ele>489</ele>
        <time>2015-10-18T23:02:12Z</time>
      </trkpt>
      <trkpt lat="46.01326" lon="2.9983">
        <ele>488</ele>
        <time>2015-10-18T23:04:12Z</time>
      </trkpt>
      <trkpt lat="46.01343" lon="2.99855">
        <ele>489</ele>
        <time>2015-10-18T23:06:12Z</time>
      </trkpt>
      <trkpt lat="46.01341" lon="2.99886">
        <ele>488</ele>
        <time>2015-10-18T23:08:12Z</time>
      </trkpt>
      <trkpt lat="46.01321" lon="2.99905">
        <ele>487</ele>
        <time>2015-10-18T23:10:12Z</time>
      </trkpt>
      <trkpt lat="46.01301" lon="2.99915">
        <ele>489</ele>
        <time>2015-10-18T23:12:12Z</time>
      </trkpt>
      <trkpt lat="46.01275" lon="2.99917">
        <ele>491</ele>
        <time>2015-10-18T23:14:12Z</time>
      </trkpt>
      <trkpt lat="46.01259" lon="2.99902">
        <ele>492</ele>
        <time>2015-10-18T23:16:12Z</time>
      </trkpt>
      <trkpt lat="46.01242" lon="2.99888">
        <ele>495</ele>
        <time>2015-10-18T23:18:12Z</time>
      </trkpt>
      <trkpt lat="46.01229" lon="2.99877">
        <ele>499</ele>
        <time>2015-10-18T23:20:12Z</time>
      </trkpt>
      <trkpt lat="46.01209" lon="2.99881">
        <ele>506</ele>
        <time>2015-10-18T23:22:12Z</time>
      </trkpt>
      <trkpt lat="46.01192" lon="2.99894">
        <ele>511</ele>
        <time>2015-10-18T23:24:12Z</time>
      </trkpt>
      <trkpt lat="46.0118" lon="2.99916">
        <ele>515</ele>
        <time>2015-10-18T23:26:12Z</time>
      </trkpt>
      <trkpt lat="46.01183" lon="2.99943">
        <ele>514</ele>
        <time>2015-10-18T23:28:12Z</time>
      </trkpt>
      <trkpt lat="46.01186" lon="2.99983">
        <ele>512</ele>
        <time>2015-10-18T23:30:12Z</time>
      </trkpt>
      <trkpt lat="46.01188" lon="2.99998">
        <ele>512</ele>
        <time>2015-10-18T23:32:12Z</time>
      </trkpt>
      <trkpt lat="46.01172" lon="3.00021">
        <ele>514</ele>
        <time>2015-10-18T23:34:12Z</time>
      </trkpt>
      <trkpt lat="46.01146" lon="3.00027">
        <ele>517</ele>
        <time>2015-10-18T23:36:12Z</time>
      </trkpt>
      <trkpt lat="46.01136" lon="2.99996">
        <ele>519</ele>
        <time>2015-10-18T23:38:12Z</time>
      </trkpt>
      <trkpt lat="46.01134" lon="2.9996">
        <ele>522</ele>
        <time>2015-10-18T23:40:12Z</time>
      </trkpt>
      <trkpt lat="46.01127" lon="2.99923">
        <ele>525</ele>
        <time>2015-10-18T23:42:12Z</time>
      </trkpt>
      <trkpt lat="46.01117" lon="2.99889">
        <ele>528</ele>
        <time>2015-10-18T23:44:12Z</time>
      </trkpt>
      <trkpt lat="46.01108" lon="2.99855">
        <ele>533</ele>
        <time>2015-10-18T23:46:12Z</time>
      </trkpt>
      <trkpt lat="46.01096" lon="2.99827">
        <ele>537</ele>
        <time>2015-10-18T23:48:12Z</time>
      </trkpt>
      <trkpt lat="46.01085" lon="2.99806">
        <ele>541</ele>
        <time>2015-10-18T23:50:12Z</time>
      </trkpt>
      <trkpt lat="46.01061" lon="2.99785">
        <ele>542</ele>
        <time>2015-10-18T23:52:12Z</time>
      </trkpt>
      <trkpt lat="46.0104" lon="2.9977">
        <ele>544</ele>
        <time>2015-10-18T23:54:12Z</time>
      </trkpt>
      <trkpt lat="46.01019" lon="2.99754">
        <ele>546</ele>
        <time>2015-10-18T23:56:12Z</time>
      </trkpt>
      <trkpt lat="46.00993" lon="2.99714">
        <ele>551</ele>
        <time>2015-10-18T23:58:12Z</time>
      </trkpt>
      <trkpt lat="46.0096" lon="2.99675">
        <ele>557</ele>
        <time>2015-10-19T00:00:12Z</time>
      </trkpt>
      <trkpt lat="46.00942" lon="2.99647">
        <ele>562</ele>
        <time>2015-10-19T00:02:12Z</time>
      </trkpt>
      <trkpt lat="46.00927" lon="2.99613">
        <ele>568</ele>
        <time>2015-10-19T00:04:12Z</time>
      </trkpt>
      <trkpt lat="46.00905" lon="2.99601">
        <ele>571</ele>
        <time>2015-10-19T00:06:12Z</time>
      </trkpt>
      <trkpt lat="46.00863" lon="2.99601">
        <ele>574</ele>
        <time>2015-10-19T00:08:12Z</time>
      </trkpt>
      <trkpt lat="46.00846" lon="2.99613">
        <ele>573</ele>
        <time>2015-10-19T00:10:12Z</time>
      </trkpt>
      <trkpt lat="46.00824" lon="2.99623">
        <ele>571</ele>
        <time>2015-10-19T00:12:12Z</time>
      </trkpt>
      <trkpt lat="46.008" lon="2.99614">
        <ele>570</ele>
        <time>2015-10-19T00:14:12Z</time>
      </trkpt>
      <trkpt lat="46.00734" lon="2.9955">
        <ele>575</ele>
        <time>2015-10-19T00:16:12Z</time>
      </trkpt>
      <trkpt lat="46.00715" lon="2.9953">
        <ele>578</ele>
        <time>2015-10-19T00:18:12Z</time>
      </trkpt>
      <trkpt lat="46.00696" lon="2.99518">
        <ele>579</ele>
        <time>2015-10-19T00:20:12Z</time>
      </trkpt>
      <trkpt lat="46.00657" lon="2.9952">
        <ele>579</ele>
        <time>2015-10-19T00:22:12Z</time>
      </trkpt>
      <trkpt lat="46.00622" lon="2.99521">
        <ele>581</ele>
        <time>2015-10-19T00:24:12Z</time>
      </trkpt>
      <trkpt lat="46.00612" lon="2.99516">
        <ele>582</ele>
        <time>2015-10-19T00:26:12Z</time>
      </trkpt>
      <trkpt lat="46.00584" lon="2.99513">
        <ele>584</ele>
        <time>2015-10-19T00:28:12Z</time>
      </trkpt>
      <trkpt lat="46.00559" lon="2.99521">
        <ele>584</ele>
        <time>2015-10-19T00:30:12Z</time>
      </trkpt>
      <trkpt lat="46.00534" lon="2.99541">
        <ele>584</ele>
        <time>2015-10-19T00:32:12Z</time>
      </trkpt>
      <trkpt lat="46.00481" lon="2.9958">
        <ele>583</ele>
        <time>2015-10-19T00:34:12Z</time>
      </trkpt>
      <trkpt lat="46.00458" lon="2.99593">
        <ele>582</ele>
        <time>2015-10-19T00:36:12Z</time>
      </trkpt>
      <trkpt lat="46.00435" lon="2.99584">
        <ele>583</ele>
        <time>2015-10-19T00:38:12Z</time>
      </trkpt>
      <trkpt lat="46.00412" lon="2.99585">
        <ele>583</ele>
        <time>2015-10-19T00:40:12Z</time>
      </trkpt>
      <trkpt lat="46.00391" lon="2.99589">
        <ele>583</ele>
        <time>2015-10-19T00:42:12Z</time>
      </trkpt>
      <trkpt lat="46.00361" lon="2.99566">
        <ele>586</ele>
        <time>2015-10-19T00:44:12Z</time>
      </trkpt>
      <trkpt lat="46.00344" lon="2.99555">
        <ele>588</ele>
        <time>2015-10-19T00:46:12Z</time>
      </trkpt>
      <trkpt lat="46.00331" lon="2.99569">
        <ele>587</ele>
        <time>2015-10-19T00:48:12Z</time>
      </trkpt>
      <trkpt lat="46.00314" lon="2.99582">
        <ele>586</ele>
        <time>2015-10-19T00:50:12Z</time>
      </trkpt>
      <trkpt lat="46.0029" lon="2.99605">
        <ele>585</ele>
        <time>2015-10-19T00:52:12Z</time>
      </trkpt>
      <trkpt lat="46.00291" lon="2.99633">
        <ele>585</ele>
        <time>2015-10-19T00:54:12Z</time>
      </trkpt>
      <trkpt lat="46.00301" lon="2.9966">
        <ele>583</ele>
        <time>2015-10-19T00:56:12Z</time>
      </trkpt>
      <trkpt lat="46.00312" lon="2.99701">
        <ele>585</ele>
        <time>2015-10-19T00:58:12Z</time>
      </trkpt>
      <trkpt lat="46.00315" lon="2.99733">
        <ele>587</ele>
        <time>2015-10-19T01:00:12Z</time>
      </trkpt>
      <trkpt lat="46.003" lon="2.99802">
        <ele>593</ele>
        <time>2015-10-19T01:02:12Z</time>
      </trkpt>
      <trkpt lat="46.00306" lon="2.99829">
        <ele>594</ele>
        <time>2015-10-19T01:04:12Z</time>
      </trkpt>
      <trkpt lat="46.00312" lon="2.99859">
        <ele>594</ele>
        <time>2015-10-19T01:06:12Z</time>
      </trkpt>
      <trkpt lat="46.00315" lon="2.99917">
        <ele>595</ele>
        <time>2015-10-19T01:08:12Z</time>
      </trkpt>
      <trkpt lat="46.00318" lon="2.99949">
        <ele>596</ele>
        <time>2015-10-19T01:10:12Z</time>
      </trkpt>
      <trkpt lat="46.00284" lon="2.99946">
        <ele>599</ele>
        <time>2015-10-19T01:12:12Z</time>
      </trkpt>
      <trkpt lat="46.00256" lon="2.99951">
        <ele>602</ele>
        <time>2015-10-19T01:14:12Z</time>
      </trkpt>
      <trkpt lat="46.00211" lon="2.99937">
        <ele>604</ele>
        <time>2015-10-19T01:16:12Z</time>
      </trkpt>
      <trkpt lat="46.00163" lon="2.9992">
        <ele>605</ele>
        <time>2015-10-19T01:18:12Z</time>
      </trkpt>
      <trkpt lat="46.00157" lon="2.9995">
        <ele>606</ele>
        <time>2015-10-19T01:20:12Z</time>
      </trkpt>
      <trkpt lat="46.00159" lon="2.99973">
        <ele>608</ele>
        <time>2015-10-19T01:22:12Z</time>
      </trkpt>
      <trkpt lat="46.00173" lon="3.00009">
        <ele>609</ele>
        <time>2015-10-19T01:24:12Z</time>
      </trkpt>
      <trkpt lat="46.00189" lon="3.00033">
        <ele>609</ele>
        <time>2015-10-19T01:26:12Z</time>
      </trkpt>
      <trkpt lat="46.00214" lon="3.00079">
        <ele>609</ele>
        <time>2015-10-19T01:28:12Z</time>
      </trkpt>
      <trkpt lat="46.00218" lon="3.00113">
        <ele>611</ele>
        <time>2015-10-19T01:30:12Z</time>
      </trkpt>
      <trkpt lat="46.00224" lon="3.00151">
        <ele>612</ele>
        <time>2015-10-19T01:32:12Z</time>
      </trkpt>
      <trkpt lat="46.00239" lon="3.00216">
        <ele>616</ele>
        <time>2015-10-19T01:34:12Z</time>
      </trkpt>
      <trkpt lat="46.00246" lon="3.00241">
        <ele>618</ele>
        <time>2015-10-19T01:36:12Z</time>
      </trkpt>
      <trkpt lat="46.0025" lon="3.00268">
        <ele>620</ele>
        <time>2015-10-19T01:38:12Z</time>
      </trkpt>
      <trkpt lat="46.00244" lon="3.00296">
        <ele>621</ele>
        <time>2015-10-19T01:40:12Z</time>
      </trkpt>
      <trkpt lat="46.00228" lon="3.00357">
        <ele>624</ele>
        <time>2015-10-19T01:42:12Z</time>
      </trkpt>
      <trkpt lat="46.00225" lon="3.00401">
        <ele>626</ele>
        <time>2015-10-19T01:44:12Z</time>
      </trkpt>
      <trkpt lat="46.0023" lon="3.00451">
        <ele>626</ele>
        <time>2015-10-19T01:46:12Z</time>
      </trkpt>
      <trkpt lat="46.00239" lon="3.00491">
        <ele>627</ele>
        <time>2015-10-19T01:48:12Z</time>
      </trkpt>
      <trkpt lat="46.00245" lon="3.0051">
        <ele>627</ele>
        <time>2015-10-19T01:50:12Z</time>
      </trkpt>
      <trkpt lat="46.00243" lon="3.00541">
        <ele>627</ele>
        <time>2015-10-19T01:52:12Z</time>
      </trkpt>
      <trkpt lat="46.00245" lon="3.0063">
        <ele>628</ele>
        <time>2015-10-19T01:54:12Z</time>
      </trkpt>
      <trkpt lat="46.00248" lon="3.00681">
        <ele>628</ele>
        <time>2015-10-19T01:56:12Z</time>
      </trkpt>
      <trkpt lat="46.00253" lon="3.00743">
        <ele>626</ele>
        <time>2015-10-19T01:58:12Z</time>
      </trkpt>
      <trkpt lat="46.00252" lon="3.00806">
        <ele>627</ele>
        <time>2015-10-19T02:00:12Z</time>
      </trkpt>
      <trkpt lat="46.0025" lon="3.00849">
        <ele>627</ele>
        <time>2015-10-19T02:02:12Z</time>
      </trkpt>
      <trkpt lat="46.0023" lon="3.00866">
        <ele>627</ele>
        <time>2015-10-19T02:04:12Z</time>
      </trkpt>
      <trkpt lat="46.00207" lon="3.00882">
        <ele>628</ele>
        <time>2015-10-19T02:06:12Z</time>
      </trkpt>
      <trkpt lat="46.00164" lon="3.00931">
        <ele>628</ele>
        <time>2015-10-19T02:08:12Z</time>
      </trkpt>
      <trkpt lat="46.00145" lon="3.00954">
        <ele>628</ele>
        <time>2015-10-19T02:10:12Z</time>
      </trkpt>
      <trkpt lat="46.00134" lon="3.00981">
        <ele>628</ele>
        <time>2015-10-19T02:12:12Z</time>
      </trkpt>
      <trkpt lat="46.00133" lon="3.01017">
        <ele>628</ele>
        <time>2015-10-19T02:14:12Z</time>
      </trkpt>
      <trkpt lat="46.00136" lon="3.01048">
        <ele>629</ele>
        <time>2015-10-19T02:16:12Z</time>
      </trkpt>
      <trkpt lat="46.00139" lon="3.01073">
        <ele>630</ele>
        <time>2015-10-19T02:18:12Z</time>
      </trkpt>
      <trkpt lat="46.00133" lon="3.01107">
        <ele>630</ele>
        <time>2015-10-19T02:20:12Z</time>
      </trkpt>
      <trkpt lat="46.00126" lon="3.01147">
        <ele>629</ele>
        <time>2015-10-19T02:22:12Z</time>
      </trkpt>
      <trkpt lat="46.00115" lon="3.01214">
        <ele>628</ele>
        <time>2015-10-19T02:24:12Z</time>
      </trkpt>
      <trkpt lat="46.00071" lon="3.0125">
        <ele>629</ele>
        <time>2015-10-19T02:26:12Z</time>
      </trkpt>
      <trkpt lat="46.00043" lon="3.01281">
        <ele>629</ele>
        <time>2015-10-19T02:28:12Z</time>
      </trkpt>
      <trkpt lat="46.0001" lon="3.01305">
        <ele>630</ele>
        <time>2015-10-19T02:30:12Z</time>
      </trkpt>
      <trkpt lat="45.99996" lon="3.01338">
        <ele>630</ele>
        <time>2015-10-19T02:32:12Z</time>
      </trkpt>
      <trkpt lat="45.99992" lon="3.01353">
        <ele>629</ele>
        <time>2015-10-19T02:34:12Z</time>
      </trkpt>
      <trkpt lat="45.99969" lon="3.01332">
        <ele>630</ele>
        <time>2015-10-19T02:36:12Z</time>
      </trkpt>
      <trkpt lat="45.99972" lon="3.01375">
        <ele>629</ele>
        <time>2015-10-19T02:38:12Z</time>
      </trkpt>
      <trkpt lat="45.99946" lon="3.01386">
        <ele>629</ele>
        <time>2015-10-19T02:40:12Z</time>
      </trkpt>
      <trkpt lat="45.99851" lon="3.01409">
        <ele>630</ele>
        <time>2015-10-19T02:42:12Z</time>
      </trkpt>
      <trkpt lat="45.99814" lon="3.01419">
        <ele>631</ele>
        <time>2015-10-19T02:44:12Z</time>
      </trkpt>
      <trkpt lat="45.99773" lon="3.01429">
        <ele>632</ele>
        <time>2015-10-19T02:46:12Z</time>
      </trkpt>
      <trkpt lat="45.99725" lon="3.01435">
        <ele>632</ele>
        <time>2015-10-19T02:48:12Z</time>
      </trkpt>
      <trkpt lat="45.99698" lon="3.01455">
        <ele>633</ele>
        <time>2015-10-19T02:50:12Z</time>
      </trkpt>
      <trkpt lat="45.99641" lon="3.01475">
        <ele>633</ele>
        <time>2015-10-19T02:52:12Z</time>
      </trkpt>
      <trkpt lat="45.99593" lon="3.01476">
        <ele>633</ele>
        <time>2015-10-19T02:54:12Z</time>
      </trkpt>
      <trkpt lat="45.99543" lon="3.0145">
        <ele>634</ele>
        <time>2015-10-19T02:56:12Z</time>
      </trkpt>
      <trkpt lat="45.99502" lon="3.01437">
        <ele>634</ele>
        <time>2015-10-19T02:58:12Z</time>
      </trkpt>
      <trkpt lat="45.99466" lon="3.01436">
        <ele>630</ele>
        <time>2015-10-19T03:00:12Z</time>
      </trkpt>
      <trkpt lat="45.99438" lon="3.01433">
        <ele>628</ele>
        <time>2015-10-19T03:02:12Z</time>
      </trkpt>
      <trkpt lat="45.99391" lon="3.01403">
        <ele>624</ele>
        <time>2015-10-19T03:04:12Z</time>
      </trkpt>
      <trkpt lat="45.99358" lon="3.01366">
        <ele>623</ele>
        <time>2015-10-19T03:06:12Z</time>
      </trkpt>
      <trkpt lat="45.99302" lon="3.01314">
        <ele>622</ele>
        <time>2015-10-19T03:08:12Z</time>
      </trkpt>
      <trkpt lat="45.99275" lon="3.01278">
        <ele>621</ele>
        <time>2015-10-19T03:10:12Z</time>
      </trkpt>
      <trkpt lat="45.99251" lon="3.0125">
        <ele>621</ele>
        <time>2015-10-19T03:12:12Z</time>
      </trkpt>
      <trkpt lat="45.99206" lon="3.01223">
        <ele>624</ele>
        <time>2015-10-19T03:14:12Z</time>
      </trkpt>
      <trkpt lat="45.99164" lon="3.01212">
        <ele>626</ele>
        <time>2015-10-19T03:16:12Z</time>
      </trkpt>
      <trkpt lat="45.99101" lon="3.01203">
        <ele>628</ele>
        <time>2015-10-19T03:18:12Z</time>
      </trkpt>
      <trkpt lat="45.99074" lon="3.0119">
        <ele>630</ele>
        <time>2015-10-19T03:20:12Z</time>
      </trkpt>
      <trkpt lat="45.99" lon="3.01146">
        <ele>633</ele>
        <time>2015-10-19T03:22:12Z</time>
      </trkpt>
      <trkpt lat="45.98942" lon="3.01105">
        <ele>635</ele>
        <time>2015-10-19T03:24:12Z</time>
      </trkpt>
      <trkpt lat="45.9888" lon="3.01053">
        <ele>637</ele>
        <time>2015-10-19T03:26:12Z</time>
      </trkpt>
      <trkpt lat="45.98845" lon="3.01025">
        <ele>639</ele>
        <time>2015-10-19T03:28:12Z</time>
      </trkpt>
      <trkpt lat="45.98807" lon="3.00994">
        <ele>641</ele>
        <time>2015-10-19T03:30:12Z</time>
      </trkpt>
      <trkpt lat="45.98784" lon="3.00961">
        <ele>643</ele>
        <time>2015-10-19T03:32:12Z</time>
      </trkpt>
      <trkpt lat="45.98718" lon="3.00941">
        <ele>645</ele>
        <time>2015-10-19T03:34:12Z</time>
      </trkpt>
      <trkpt lat="45.98682" lon="3.00926">
        <ele>647</ele>
        <time>2015-10-19T03:36:12Z</time>
      </trkpt>
      <trkpt lat="45.98684" lon="3.00869">
        <ele>651</ele>
        <time>2015-10-19T03:38:12Z</time>
      </trkpt>
      <trkpt lat="45.98681" lon="3.00816">
        <ele>655</ele>
        <time>2015-10-19T03:40:12Z</time>
      </trkpt>
      <trkpt lat="45.98672" lon="3.0076">
        <ele>658</ele>
        <time>2015-10-19T03:42:12Z</time>
      </trkpt>
      <trkpt lat="45.98659" lon="3.00604">
        <ele>664</ele>
        <time>2015-10-19T03:44:12Z</time>
      </trkpt>
      <trkpt lat="45.98706" lon="3.00508">
        <ele>668</ele>
        <time>2015-10-19T03:46:12Z</time>
      </trkpt>
      <trkpt lat="45.98731" lon="3.00476">
        <ele>669</ele>
        <time>2015-10-19T03:48:12Z</time>
      </trkpt>
      <trkpt lat="45.98778" lon="3.00415">
        <ele>671</ele>
        <time>2015-10-19T03:50:12Z</time>
      </trkpt>
      <trkpt lat="45.98844" lon="3.00343">
        <ele>672</ele>
        <time>2015-10-19T03:52:12Z</time>
      </trkpt>
      <trkpt lat="45.98828" lon="3.00314">
        <ele>673</ele>
        <time>2015-10-19T03:54:12Z</time>
      </trkpt>
      <trkpt lat="45.98842" lon="3.00219">
        <ele>670</ele>
        <time>2015-10-19T03:56:12Z</time>
      </trkpt>
      <trkpt lat="45.98845" lon="3.00186">
        <ele>669</ele>
        <time>2015-10-19T03:58:12Z</time>
      </trkpt>
      <trkpt lat="45.98834" lon="3.0016">
        <ele>668</ele>
        <time>2015-10-19T04:00:12Z</time>
      </trkpt>
      <trkpt lat="45.98783" lon="3.00122">
        <ele>669</ele>
        <time>2015-10-19T04:02:12Z</time>
      </trkpt>
      <trkpt lat="45.98774" lon="3.00107">
        <ele>668</ele>
        <time>2015-10-19T04:04:12Z</time>
      </trkpt>
      <trkpt lat="45.98769" lon="3.00065">
        <ele>664</ele>
        <time>2015-10-19T04:06:12Z</time>
      </trkpt>
      <trkpt lat="45.98766" lon="3.00012">
        <ele>660</ele>
        <time>2015-10-19T04:08:12Z</time>
      </trkpt>
      <trkpt lat="45.98764" lon="2.99995">
        <ele>658</ele>
        <time>2015-10-19T04:10:12Z</time>
      </trkpt>
      <trkpt lat="45.98771" lon="2.99978">
        <ele>656</ele>
        <time>2015-10-19T04:12:12Z</time>
      </trkpt>
      <trkpt lat="45.98777" lon="2.99965">
        <ele>654</ele>
        <time>2015-10-19T04:14:12Z</time>
      </trkpt>
      <trkpt lat="45.98775" lon="2.9995">
        <ele>653</ele>
        <time>2015-10-19T04:16:12Z</time>
      </trkpt>
      <trkpt lat="45.98752" lon="2.99888">
        <ele>650</ele>
        <time>2015-10-19T04:18:12Z</time>
      </trkpt>
      <trkpt lat="45.98737" lon="2.99795">
        <ele>647</ele>
        <time>2015-10-19T04:20:12Z</time>
      </trkpt>
      <trkpt lat="45.98741" lon="2.99713">
        <ele>646</ele>
        <time>2015-10-19T04:22:12Z</time>
      </trkpt>
      <trkpt lat="45.98749" lon="2.99679">
        <ele>645</ele>
        <time>2015-10-19T04:24:12Z</time>
      </trkpt>
      <trkpt lat="45.98737" lon="2.99667">
        <ele>647</ele>
        <time>2015-10-19T04:26:12Z</time>
      </trkpt>
      <trkpt lat="45.98714" lon="2.99673">
        <ele>649</ele>
        <time>2015-10-19T04:28:12Z</time>
      </trkpt>
      <trkpt lat="45.98698" lon="2.99684">
        <ele>651</ele>
        <time>2015-10-19T04:30:12Z</time>
      </trkpt>
      <trkpt lat="45.98661" lon="2.99707">
        <ele>655</ele>
        <time>2015-10-19T04:32:12Z</time>
      </trkpt>
      <trkpt lat="45.9864" lon="2.99721">
        <ele>658</ele>
        <time>2015-10-19T04:34:12Z</time>
      </trkpt>
      <trkpt lat="45.98632" lon="2.99728">
        <ele>659</ele>
        <time>2015-10-19T04:36:12Z</time>
      </trkpt>
      <trkpt lat="45.98614" lon="2.99732">
        <ele>662</ele>
        <time>2015-10-19T04:38:12Z</time>
      </trkpt>
      <trkpt lat="45.98602" lon="2.99727">
        <ele>664</ele>
        <time>2015-10-19T04:40:12Z</time>
      </trkpt>
      <trkpt lat="45.98567" lon="2.99722">
        <ele>670</ele>
        <time>2015-10-19T04:42:12Z</time>
      </trkpt>
      <trkpt lat="45.98544" lon="2.9975">
        <ele>674</ele>
        <time>2015-10-19T04:44:12Z</time>
      </trkpt>
      <trkpt lat="45.98462" lon="2.99772">
        <ele>691</ele>
        <time>2015-10-19T04:46:12Z</time>
      </trkpt>
      <trkpt lat="45.98397" lon="2.99783">
        <ele>703</ele>
        <time>2015-10-19T04:48:12Z</time>
      </trkpt>
      <trkpt lat="45.9835" lon="2.99781">
        <ele>709</ele>
        <time>2015-10-19T04:50:12Z</time>
      </trkpt>
      <trkpt lat="45.98277" lon="2.99884">
        <ele>708</ele>
        <time>2015-10-19T04:52:12Z</time>
      </trkpt>
      <trkpt lat="45.98234" lon="2.99944">
        <ele>705</ele>
        <time>2015-10-19T04:54:12Z</time>
      </trkpt>
      <trkpt lat="45.9811" lon="2.99904">
        <ele>711</ele>
        <time>2015-10-19T04:56:12Z</time>
      </trkpt>
      <trkpt lat="45.98034" lon="2.99873">
        <ele>713</ele>
        <time>2015-10-19T04:58:12Z</time>
      </trkpt>
      <trkpt lat="45.97963" lon="2.99829">
        <ele>715</ele>
        <time>2015-10-19T05:00:12Z</time>
      </trkpt>
      <trkpt lat="45.97938" lon="2.9982">
        <ele>715</ele>
        <time>2015-10-19T05:02:12Z</time>
      </trkpt>
      <trkpt lat="45.97925" lon="2.99814">
        <ele>716</ele>
        <time>2015-10-19T05:04:12Z</time>
      </trkpt>
      <trkpt lat="45.97928" lon="2.99785">
        <ele>716</ele>
        <time>2015-10-19T05:06:12Z</time>
      </trkpt>
      <trkpt lat="45.97921" lon="2.99766">
        <ele>716</ele>
        <time>2015-10-19T05:08:12Z</time>
      </trkpt>
      <trkpt lat="45.97902" lon="2.99751">
        <ele>719</ele>
        <time>2015-10-19T05:10:12Z</time>
      </trkpt>
      <trkpt lat="45.97889" lon="2.99726">
        <ele>718</ele>
        <time>2015-10-19T05:12:12Z</time>
      </trkpt>
      <trkpt lat="45.97849" lon="2.99663">
        <ele>716</ele>
        <time>2015-10-19T05:14:12Z</time>
      </trkpt>
      <trkpt lat="45.97836" lon="2.9965">
        <ele>715</ele>
        <time>2015-10-19T05:16:12Z</time>
      </trkpt>
      <trkpt lat="45.97808" lon="2.99628">
        <ele>713</ele>
        <time>2015-10-19T05:18:12Z</time>
      </trkpt>
      <trkpt lat="45.97751" lon="2.99564">
        <ele>711</ele>
        <time>2015-10-19T05:20:12Z</time>
      </trkpt>
      <trkpt lat="45.97714" lon="2.99506">
        <ele>705</ele>
        <time>2015-10-19T05:22:12Z</time>
      </trkpt>
      <trkpt lat="45.97705" lon="2.99476">
        <ele>702</ele>
        <time>2015-10-19T05:24:12Z</time>
      </trkpt>
      <trkpt lat="45.97692" lon="2.99438">
        <ele>700</ele>
        <time>2015-10-19T05:26:12Z</time>
      </trkpt>
      <trkpt lat="45.97678" lon="2.99417">
        <ele>701</ele>
        <time>2015-10-19T05:28:12Z</time>
      </trkpt>
      <trkpt lat="45.9764" lon="2.99373">
        <ele>699</ele>
        <time>2015-10-19T05:30:12Z</time>
      </trkpt>
      <trkpt lat="45.97609" lon="2.99343">
        <ele>697</ele>
        <time>2015-10-19T05:32:12Z</time>
      </trkpt>
      <trkpt lat="45.9757" lon="2.99283">
        <ele>695</ele>
        <time>2015-10-19T05:34:12Z</time>
      </trkpt>
      <trkpt lat="45.97509" lon="2.99226">
        <ele>693</ele>
        <time>2015-10-19T05:36:12Z</time>
      </trkpt>
      <trkpt lat="45.97488" lon="2.99208">
        <ele>693</ele>
        <time>2015-10-19T05:38:12Z</time>
      </trkpt>
      <trkpt lat="45.97467" lon="2.99178">
        <ele>694</ele>
        <time>2015-10-19T05:40:12Z</time>
      </trkpt>
      <trkpt lat="45.97439" lon="2.99127">
        <ele>694</ele>
        <time>2015-10-19T05:42:12Z</time>
      </trkpt>
      <trkpt lat="45.97407" lon="2.9907">
        <ele>694</ele>
        <time>2015-10-19T05:44:12Z</time>
      </trkpt>
      <trkpt lat="45.97352" lon="2.99003">
        <ele>696</ele>
        <time>2015-10-19T05:46:12Z</time>
      </trkpt>
      <trkpt lat="45.97321" lon="2.98959">
        <ele>696</ele>
        <time>2015-10-19T05:48:12Z</time>
      </trkpt>
      <trkpt lat="45.97372" lon="2.98927">
        <ele>689</ele>
        <time>2015-10-19T05:50:12Z</time>
      </trkpt>
      <trkpt lat="45.97392" lon="2.98918">
        <ele>686</ele>
        <time>2015-10-19T05:52:12Z</time>
      </trkpt>
      <trkpt lat="45.9748" lon="2.98923">
        <ele>680</ele>
        <time>2015-10-19T05:54:12Z</time>
      </trkpt>
      <trkpt lat="45.97558" lon="2.98941">
        <ele>674</ele>
        <time>2015-10-19T05:56:12Z</time>
      </trkpt>
      <trkpt lat="45.97586" lon="2.98944">
        <ele>671</ele>
        <time>2015-10-19T05:58:12Z</time>
      </trkpt>
      <trkpt lat="45.97619" lon="2.98948">
        <ele>668</ele>
        <time>2015-10-19T06:00:12Z</time>
      </trkpt>
      <trkpt lat="45.97644" lon="2.98945">
        <ele>666</ele>
        <time>2015-10-19T06:02:12Z</time>
      </trkpt>
      <trkpt lat="45.97664" lon="2.98957">
        <ele>665</ele>
        <time>2015-10-19T06:04:12Z</time>
      </trkpt>
      <trkpt lat="45.97677" lon="2.98976">
        <ele>664</ele>
        <time>2015-10-19T06:06:12Z</time>
      </trkpt>
      <trkpt lat="45.97694" lon="2.98994">
        <ele>662</ele>
        <time>2015-10-19T06:08:12Z</time>
      </trkpt>
      <trkpt lat="45.97706" lon="2.99005">
        <ele>660</ele>
        <time>2015-10-19T06:10:12Z</time>
      </trkpt>
      <trkpt lat="45.97713" lon="2.98997">
        <ele>658</ele>
        <time>2015-10-19T06:12:12Z</time>
      </trkpt>
      <trkpt lat="45.97717" lon="2.98986">
        <ele>657</ele>
        <time>2015-10-19T06:14:12Z</time>
      </trkpt>
      <trkpt lat="45.97714" lon="2.98949">
        <ele>655</ele>
        <time>2015-10-19T06:16:12Z</time>
      </trkpt>
      <trkpt lat="45.97717" lon="2.98937">
        <ele>654</ele>
        <time>2015-10-19T06:18:12Z</time>
      </trkpt>
      <trkpt lat="45.97725" lon="2.98934">
        <ele>653</ele>
        <time>2015-10-19T06:20:12Z</time>
      </trkpt>
      <trkpt lat="45.97761" lon="2.98942">
        <ele>647</ele>
        <time>2015-10-19T06:22:12Z</time>
      </trkpt>
      <trkpt lat="45.97771" lon="2.98944">
        <ele>645</ele>
        <time>2015-10-19T06:24:12Z</time>
      </trkpt>
      <trkpt lat="45.9779" lon="2.98916">
        <ele>641</ele>
        <time>2015-10-19T06:26:12Z</time>
      </trkpt>
      <trkpt lat="45.97799" lon="2.98905">
        <ele>641</ele>
        <time>2015-10-19T06:28:12Z</time>
      </trkpt>
      <trkpt lat="45.978" lon="2.98865">
        <ele>645</ele>
        <time>2015-10-19T06:30:12Z</time>
      </trkpt>
      <trkpt lat="45.97835" lon="2.98827">
        <ele>645</ele>
        <time>2015-10-19T06:32:12Z</time>
      </trkpt>
      <trkpt lat="45.97846" lon="2.98811">
        <ele>646</ele>
        <time>2015-10-19T06:34:12Z</time>
      </trkpt>
      <trkpt lat="45.97854" lon="2.98791">
        <ele>647</ele>
        <time>2015-10-19T06:36:12Z</time>
      </trkpt>
      <trkpt lat="45.9787" lon="2.98767">
        <ele>649</ele>
        <time>2015-10-19T06:38:12Z</time>
      </trkpt>
      <trkpt lat="45.97906" lon="2.98731">
        <ele>649</ele>
        <time>2015-10-19T06:40:12Z</time>
      </trkpt>
      <trkpt lat="45.97951" lon="2.987">
        <ele>646</ele>
        <time>2015-10-19T06:42:12Z</time>
      </trkpt>
      <trkpt lat="45.97975" lon="2.98693">
        <ele>643</ele>
        <time>2015-10-19T06:44:12Z</time>
      </trkpt>
      <trkpt lat="45.9801" lon="2.98664">
        <ele>643</ele>
        <time>2015-10-19T06:46:12Z</time>
      </trkpt>
      <trkpt lat="45.98044" lon="2.98661">
        <ele>639</ele>
        <time>2015-10-19T06:48:12Z</time>
      </trkpt>
      <trkpt lat="45.98072" lon="2.98665">
        <ele>636</ele>
        <time>2015-10-19T06:50:12Z</time>
      </trkpt>
      <trkpt lat="45.98114" lon="2.98679">
        <ele>634</ele>
        <time>2015-10-19T06:52:12Z</time>
      </trkpt>
      <trkpt lat="45.98134" lon="2.98679">
        <ele>633</ele>
        <time>2015-10-19T06:54:12Z</time>
      </trkpt>
      <trkpt lat="45.98187" lon="2.98667">
        <ele>634</ele>
        <time>2015-10-19T06:56:12Z</time>
      </trkpt>
      <trkpt lat="45.98219" lon="2.98663">
        <ele>636</ele>
        <time>2015-10-19T06:58:12Z</time>
      </trkpt>
      <trkpt lat="45.98227" lon="2.98605">
        <ele>636</ele>
        <time>2015-10-19T07:00:12Z</time>
      </trkpt>
      <trkpt lat="45.98249" lon="2.98604">
        <ele>637</ele>
        <time>2015-10-19T07:02:12Z</time>
      </trkpt>
      <trkpt lat="45.98273" lon="2.98613">
        <ele>638</ele>
        <time>2015-10-19T07:04:12Z</time>
      </trkpt>
      <trkpt lat="45.98289" lon="2.98623">
        <ele>639</ele>
        <time>2015-10-19T07:06:12Z</time>
      </trkpt>
      <trkpt lat="45.98347" lon="2.98431">
        <ele>638</ele>
        <time>2015-10-19T07:08:12Z</time>
      </trkpt>
      <trkpt lat="45.98378" lon="2.983">
        <ele>636</ele>
        <time>2015-10-19T07:10:12Z</time>
      </trkpt>
      <trkpt lat="45.98423" lon="2.98303">
        <ele>638</ele>
        <time>2015-10-19T07:12:12Z</time>
      </trkpt>
      <trkpt lat="45.98473" lon="2.9831">
        <ele>640</ele>
        <time>2015-10-19T07:14:12Z</time>
      </trkpt>
      <trkpt lat="45.98502" lon="2.98321">
        <ele>641</ele>
        <time>2015-10-19T07:16:12Z</time>
      </trkpt>
      <trkpt lat="45.98547" lon="2.9831">
        <ele>642</ele>
        <time>2015-10-19T07:18:12Z</time>
      </trkpt>
      <trkpt lat="45.98581" lon="2.98337">
        <ele>644</ele>
        <time>2015-10-19T07:20:12Z</time>
      </trkpt>
      <trkpt lat="45.98628" lon="2.98368">
        <ele>644</ele>
        <time>2015-10-19T07:22:12Z</time>
      </trkpt>
      <trkpt lat="45.98658" lon="2.98394">
        <ele>644</ele>
        <time>2015-10-19T07:24:12Z</time>
      </trkpt>
      <trkpt lat="45.98697" lon="2.98367">
        <ele>644</ele>
        <time>2015-10-19T07:26:12Z</time>
      </trkpt>
      <trkpt lat="45.98739" lon="2.98428">
        <ele>644</ele>
        <time>2015-10-19T07:28:12Z</time>
      </trkpt>
      <trkpt lat="45.98778" lon="2.98461">
        <ele>644</ele>
        <time>2015-10-19T07:30:12Z</time>
      </trkpt>
      <trkpt lat="45.988" lon="2.98493">
        <ele>643</ele>
        <time>2015-10-19T07:32:12Z</time>
      </trkpt>
      <trkpt lat="45.98825" lon="2.98535">
        <ele>642</ele>
        <time>2015-10-19T07:34:12Z</time>
      </trkpt>
      <trkpt lat="45.98849" lon="2.9857">
        <ele>640</ele>
        <time>2015-10-19T07:36:12Z</time>
      </trkpt>
      <trkpt lat="45.98875" lon="2.98604">
        <ele>640</ele>
        <time>2015-10-19T07:38:12Z</time>
      </trkpt>
      <trkpt lat="45.98914" lon="2.9864">
        <ele>639</ele>
        <time>2015-10-19T07:40:12Z</time>
      </trkpt>
      <trkpt lat="45.98937" lon="2.98669">
        <ele>638</ele>
        <time>2015-10-19T07:42:12Z</time>
      </trkpt>
      <trkpt lat="45.9898" lon="2.98739">
        <ele>634</ele>
        <time>2015-10-19T07:44:12Z</time>
      </trkpt>
      <trkpt lat="45.99012" lon="2.98783">
        <ele>633</ele>
        <time>2015-10-19T07:46:12Z</time>
      </trkpt>
      <trkpt lat="45.99056" lon="2.98846">
        <ele>629</ele>
        <time>2015-10-19T07:48:12Z</time>
      </trkpt>
      <trkpt lat="45.99069" lon="2.98886">
        <ele>626</ele>
        <time>2015-10-19T07:50:12Z</time>
      </trkpt>
      <trkpt lat="45.99081" lon="2.98924">
        <ele>623</ele>
        <time>2015-10-19T07:52:12Z</time>
      </trkpt>
      <trkpt lat="45.99102" lon="2.99003">
        <ele>615</ele>
        <time>2015-10-19T07:54:12Z</time>
      </trkpt>
      <trkpt lat="45.99103" lon="2.99051">
        <ele>612</ele>
        <time>2015-10-19T07:56:12Z</time>
      </trkpt>
      <trkpt lat="45.99103" lon="2.991">
        <ele>610</ele>
        <time>2015-10-19T07:58:12Z</time>
      </trkpt>
      <trkpt lat="45.99096" lon="2.99195">
        <ele>608</ele>
        <time>2015-10-19T08:00:12Z</time>
      </trkpt>
      <trkpt lat="45.991" lon="2.99224">
        <ele>607</ele>
        <time>2015-10-19T08:02:12Z</time>
      </trkpt>
      <trkpt lat="45.99112" lon="2.99248">
        <ele>606</ele>
        <time>2015-10-19T08:04:12Z</time>
      </trkpt>
      <trkpt lat="45.99126" lon="2.99267">
        <ele>604</ele>
        <time>2015-10-19T08:06:12Z</time>
      </trkpt>
      <trkpt lat="45.99145" lon="2.99284">
        <ele>603</ele>
        <time>2015-10-19T08:08:12Z</time>
      </trkpt>
      <trkpt lat="45.99161" lon="2.99292">
        <ele>601</ele>
        <time>2015-10-19T08:10:12Z</time>
      </trkpt>
      <trkpt lat="45.9918" lon="2.99299">
        <ele>600</ele>
        <time>2015-10-19T08:12:12Z</time>
      </trkpt>
      <trkpt lat="45.99204" lon="2.99302">
        <ele>599</ele>
        <time>2015-10-19T08:14:12Z</time>
      </trkpt>
      <trkpt lat="45.99233" lon="2.9931">
        <ele>597</ele>
        <time>2015-10-19T08:16:12Z</time>
      </trkpt>
      <trkpt lat="45.99274" lon="2.99393">
        <ele>598</ele>
        <time>2015-10-19T08:18:12Z</time>
      </trkpt>
      <trkpt lat="45.99293" lon="2.99438">
        <ele>599</ele>
        <time>2015-10-19T08:20:12Z</time>
      </trkpt>
      <trkpt lat="45.99316" lon="2.99479">
        <ele>600</ele>
        <time>2015-10-19T08:22:12Z</time>
      </trkpt>
      <trkpt lat="45.99351" lon="2.99537">
        <ele>602</ele>
        <time>2015-10-19T08:24:12Z</time>
      </trkpt>
      <trkpt lat="45.99371" lon="2.99578">
        <ele>604</ele>
        <time>2015-10-19T08:26:12Z</time>
      </trkpt>
      <trkpt lat="45.99385" lon="2.99612">
        <ele>606</ele>
        <time>2015-10-19T08:28:12Z</time>
      </trkpt>
      <trkpt lat="45.99393" lon="2.99644">
        <ele>608</ele>
        <time>2015-10-19T08:30:12Z</time>
      </trkpt>
      <trkpt lat="45.99405" lon="2.99652">
        <ele>609</ele>
        <time>2015-10-19T08:32:12Z</time>
      </trkpt>
      <trkpt lat="45.99428" lon="2.99659">
        <ele>610</ele>
        <time>2015-10-19T08:34:12Z</time>
      </trkpt>
      <trkpt lat="45.99453" lon="2.99673">
        <ele>612</ele>
        <time>2015-10-19T08:36:12Z</time>
      </trkpt>
      <trkpt lat="45.99474" lon="2.99674">
        <ele>613</ele>
        <time>2015-10-19T08:38:12Z</time>
      </trkpt>
      <trkpt lat="45.99488" lon="2.99662">
        <ele>613</ele>
        <time>2015-10-19T08:40:12Z</time>
      </trkpt>
      <trkpt lat="45.99502" lon="2.99655">
        <ele>613</ele>
        <time>2015-10-19T08:42:12Z</time>
      </trkpt>
      <trkpt lat="45.99531" lon="2.99667">
        <ele>615</ele>
        <time>2015-10-19T08:44:12Z</time>
      </trkpt>
      <trkpt lat="45.99545" lon="2.99664">
        <ele>616</ele>
        <time>2015-10-19T08:46:12Z</time>
      </trkpt>
      <trkpt lat="45.99571" lon="2.99647">
        <ele>616</ele>
        <time>2015-10-19T08:48:12Z</time>
      </trkpt>
      <trkpt lat="45.99595" lon="2.99626">
        <ele>617</ele>
        <time>2015-10-19T08:50:12Z</time>
      </trkpt>
      <trkpt lat="45.99622" lon="2.99603">
        <ele>618</ele>
        <time>2015-10-19T08:52:12Z</time>
      </trkpt>
      <trkpt lat="45.99651" lon="2.99593">
        <ele>619</ele>
        <time>2015-10-19T08:54:12Z</time>
      </trkpt>
      <trkpt lat="45.99668" lon="2.99609">
        <ele>619</ele>
        <time>2015-10-19T08:56:12Z</time>
      </trkpt>
      <trkpt lat="45.99652" lon="2.99662">
        <ele>617</ele>
        <time>2015-10-19T08:58:12Z</time>
      </trkpt>
      <trkpt lat="45.99643" lon="2.99658">
        <ele>617</ele>
        <time>2015-10-19T09:00:12Z</time>
      </trkpt>
    </trkseg>
  </trk>
</gpx>